createdAt,value
2023-03-02T00:01:31.709Z,33.17
2023-03-02T00:06:15.631Z,27.30
2023-03-02T00:11:03.384Z,31.60
2023-03-02T00:16:08.805Z,32.60
2023-03-02T00:21:09.305Z,27.70
2023-03-02T00:26:02.560Z,25.97
2023-03-02T00:31:04.960Z,25.93
2023-03-02T00:35:56.495Z,26.40
2023-03-02T00:46:35.073Z,27.20
2023-03-02T00:51:22.266Z,31.40
2023-03-02T00:56:35.347Z,26.87
2023-03-02T01:01:58.667Z,27.93
2023-03-02T01:07:01.308Z,26.50
2023-03-02T01:23:51.997Z,26.27
2023-03-02T01:36:51.673Z,28.40
2023-03-02T01:44:09.740Z,21.87
2023-03-02T02:21:10.680Z,28.53
2023-03-02T02:26:35.590Z,26.27
2023-03-02T03:37:54.892Z,34.20
2023-03-02T03:43:38.560Z,32.27
2023-03-02T03:54:30.065Z,31.97
2023-03-02T03:59:36.194Z,36.10
2023-03-02T04:04:43.490Z,30.80
2023-03-02T04:09:56.134Z,30.67
2023-03-02T04:14:48.394Z,31.50
2023-03-02T04:20:12.664Z,29.50
2023-03-02T04:25:55.719Z,32.33
2023-03-02T04:30:48.884Z,34.03
2023-03-02T04:35:35.662Z,32.10
2023-03-02T04:40:22.238Z,33.60
2023-03-02T04:45:22.910Z,33.87
2023-03-02T04:50:16.369Z,34.77
2023-03-02T04:55:03.877Z,33.90
2023-03-02T04:59:50.938Z,30.60
2023-03-02T05:04:40.701Z,33.47
2023-03-02T05:09:30.349Z,37.73
2023-03-02T05:14:16.120Z,34.70
2023-03-02T05:19:05.395Z,32.30
2023-03-02T05:23:52.328Z,32.57
2023-03-02T05:28:39.980Z,34.13
2023-03-02T05:33:28.731Z,33.23
2023-03-02T05:38:14.876Z,31.87
2023-03-02T05:43:04.999Z,32.90
2023-03-02T05:47:50.330Z,30.20
2023-03-02T05:52:39.616Z,29.00
2023-03-02T05:57:28.324Z,30.00
2023-03-02T06:02:14.405Z,35.30
2023-03-02T06:07:05.015Z,33.90
2023-03-02T06:11:51.485Z,31.43
2023-03-02T06:16:37.675Z,35.97
2023-03-02T06:21:29.179Z,33.33
2023-03-02T06:26:16.753Z,34.50
2023-03-02T06:31:03.602Z,30.80
2023-03-02T06:35:51.439Z,31.37
2023-03-02T06:40:39.169Z,32.47
2023-03-02T06:45:43.611Z,32.00
2023-03-02T06:51:05.840Z,36.27
2023-03-02T06:56:09.898Z,34.47
2023-03-02T07:01:55.893Z,35.30
2023-03-02T08:14:36.135Z,31.37
2023-03-02T08:19:54.030Z,30.33
2023-03-02T08:24:43.175Z,34.63
2023-03-02T08:29:30.394Z,31.43
2023-03-02T08:34:16.562Z,29.03
2023-03-02T08:39:15.111Z,29.80
2023-03-02T08:44:10.388Z,29.90
2023-03-02T08:48:57.023Z,32.30
2023-03-02T08:53:47.261Z,29.70
2023-03-02T08:58:33.276Z,30.00
2023-03-02T09:03:19.708Z,27.20
2023-03-02T09:08:07.642Z,27.70
2023-03-02T09:12:53.645Z,26.73
2023-03-02T09:17:44.061Z,28.67
2023-03-02T09:22:31.698Z,29.43
2023-03-02T09:27:18.800Z,30.60
2023-03-02T09:32:08.440Z,24.93
2023-03-02T09:36:55.009Z,31.87
2023-03-02T09:42:43.021Z,24.53
2023-03-02T09:47:38.341Z,22.03
2023-03-02T09:52:37.104Z,22.30
2023-03-02T09:57:43.169Z,23.83
2023-03-02T10:02:32.705Z,25.53
2023-03-02T10:07:32.871Z,22.33
2023-03-02T10:12:53.469Z,23.20
2023-03-02T10:17:59.178Z,19.53
2023-03-02T10:22:49.762Z,22.90
2023-03-02T10:28:06.449Z,25.77
2023-03-02T10:32:58.762Z,23.53
2023-03-02T10:37:42.449Z,20.30
2023-03-02T10:42:35.561Z,21.23
2023-03-02T10:47:32.631Z,19.87
2023-03-02T10:52:37.093Z,18.50
2023-03-02T10:57:45.483Z,15.93
2023-03-02T11:02:46.468Z,16.47
2023-03-02T11:07:36.949Z,15.17
2023-03-02T11:12:24.838Z,16.27
2023-03-02T11:17:45.408Z,17.83
2023-03-02T11:22:46.317Z,15.03
2023-03-02T11:27:40.622Z,13.97
2023-03-02T11:32:40.655Z,13.47
2023-03-02T11:37:42.838Z,10.93
2023-03-02T11:42:36.450Z,12.13
2023-03-02T11:47:33.936Z,12.07
2023-03-02T11:52:28.862Z,11.20
2023-03-02T11:57:40.412Z,10.87
2023-03-02T12:03:01.344Z,12.23
2023-03-02T12:08:24.164Z,11.10
2023-03-02T12:13:27.669Z,13.53
2023-03-02T12:18:44.944Z,11.60
2023-03-02T12:23:55.645Z,16.03
2023-03-02T12:28:41.481Z,10.57
2023-03-02T12:33:26.541Z,10.30
2023-03-02T12:38:32.194Z,9.97
2023-03-02T12:43:39.616Z,13.23
2023-03-02T12:48:37.154Z,12.17
2023-03-02T12:53:26.961Z,10.57
2023-03-02T12:58:18.982Z,9.50
2023-03-02T13:03:10.876Z,10.43
2023-03-02T13:08:23.537Z,12.57
2023-03-02T13:13:31.354Z,9.83
2023-03-02T13:18:20.425Z,9.93
2023-03-02T13:23:05.125Z,13.17
2023-03-02T13:27:54.179Z,16.27
2023-03-02T13:32:41.197Z,15.80
2023-03-02T13:37:43.994Z,12.97
2023-03-02T13:42:47.700Z,13.37
2023-03-02T13:47:36.810Z,14.30
2023-03-02T13:52:38.350Z,14.90
2023-03-02T13:57:47.555Z,15.23
2023-03-02T14:02:33.746Z,16.73
2023-03-02T14:07:18.167Z,16.23
2023-03-02T14:12:08.038Z,15.23
2023-03-02T14:16:59.201Z,16.60
2023-03-02T14:22:13.830Z,15.27
2023-03-02T14:27:06.177Z,16.63
2023-03-02T14:32:22.209Z,19.10
2023-03-02T14:37:25.816Z,18.47
2023-03-02T14:42:52.164Z,16.87
2023-03-02T14:47:38.892Z,15.87
2023-03-02T14:52:28.935Z,16.17
2023-03-02T15:03:54.796Z,16.33
2023-03-02T15:08:38.456Z,16.53
2023-03-02T15:13:27.858Z,16.83
2023-03-02T15:18:17.392Z,13.73
2023-03-02T15:23:16.959Z,14.83
2023-03-02T15:28:10.429Z,15.60
2023-03-02T15:32:54.766Z,12.83
2023-03-02T15:37:46.627Z,12.10
2023-03-02T15:42:31.842Z,14.27
2023-03-02T15:47:20.396Z,11.23
2023-03-02T15:52:59.546Z,13.23
2023-03-02T15:57:27.396Z,14.40
2023-03-02T16:02:16.805Z,13.10
2023-03-02T16:07:02.336Z,15.23
2023-03-02T16:12:23.692Z,17.67
2023-03-02T16:17:10.306Z,13.90
2023-03-02T16:21:57.629Z,14.10
2023-03-02T16:26:46.377Z,16.40
2023-03-02T16:31:38.011Z,17.50
2023-03-02T16:36:22.409Z,13.73
2023-03-02T16:41:16.655Z,14.53
2023-03-02T16:46:00.819Z,16.27
2023-03-02T16:50:47.754Z,15.80
2023-03-02T16:55:33.166Z,14.80
2023-03-02T17:00:25.381Z,14.77
2023-03-02T17:05:11.335Z,15.10
2023-03-02T17:09:57.850Z,18.30
2023-03-02T17:14:50.589Z,19.37
2023-03-02T17:19:35.598Z,19.20
2023-03-02T17:24:21.042Z,17.67
2023-03-02T17:29:13.434Z,20.10
2023-03-02T17:33:58.065Z,18.47
2023-03-02T17:38:52.130Z,18.70
2023-03-02T17:43:36.758Z,20.40
2023-03-02T17:48:22.084Z,20.23
2023-03-02T17:53:11.405Z,21.23
2023-03-02T17:57:58.642Z,18.20
2023-03-02T18:02:47.824Z,23.93
2023-03-02T18:07:33.255Z,20.37
2023-03-02T18:12:22.595Z,26.47
2023-03-02T18:17:10.496Z,24.10
2023-03-02T18:21:59.738Z,21.63
2023-03-02T18:26:46.233Z,23.47
2023-03-02T18:31:34.838Z,19.17
2023-03-02T18:36:21.921Z,23.23
2023-03-02T18:41:13.372Z,20.80
2023-03-02T18:45:58.696Z,22.10
2023-03-02T18:50:46.917Z,21.30
2023-03-02T18:55:34.131Z,21.83
2023-03-02T19:00:27.806Z,18.57
2023-03-02T19:05:12.104Z,22.67
2023-03-02T19:09:58.559Z,19.93
2023-03-02T19:14:45.961Z,25.33
2023-03-02T19:19:35.515Z,22.17
2023-03-02T19:24:20.612Z,23.53
2023-03-02T19:29:09.837Z,23.57
2023-03-02T19:34:02.079Z,25.33
2023-03-02T19:38:45.444Z,26.00
2023-03-02T19:43:34.801Z,27.77
2023-03-02T19:48:22.187Z,24.00
2023-03-02T19:53:10.744Z,27.63
2023-03-02T19:58:02.083Z,27.03
2023-03-02T20:02:45.601Z,29.10
2023-03-02T20:07:34.837Z,31.93
2023-03-02T20:12:22.991Z,29.90
2023-03-02T20:17:11.337Z,27.27
2023-03-02T20:21:57.927Z,27.80
2023-03-02T20:26:47.669Z,32.10
2023-03-02T20:31:35.903Z,32.53
2023-03-02T20:36:23.237Z,30.77
2023-03-02T20:41:12.561Z,32.23
2023-03-02T20:45:58.472Z,31.40
2023-03-02T20:50:45.726Z,32.50
2023-03-02T20:55:32.903Z,34.97
2023-03-02T21:00:22.356Z,35.77
2023-03-02T21:05:12.380Z,38.63
2023-03-02T21:10:00.317Z,37.97
2023-03-02T21:14:46.347Z,41.47
2023-03-02T21:19:35.692Z,37.77
2023-03-02T21:24:22.271Z,34.50
2023-03-02T21:29:11.889Z,42.40
2023-03-02T21:33:58.156Z,45.87
2023-03-02T21:38:45.278Z,38.90
2023-03-02T21:43:34.883Z,45.60
2023-03-02T21:48:23.134Z,38.67
2023-03-02T21:53:12.689Z,45.47
2023-03-02T21:58:02.868Z,41.97
2023-03-02T22:02:50.219Z,40.67
2023-03-02T22:07:36.219Z,47.60
2023-03-02T22:12:23.650Z,46.13
2023-03-02T22:17:27.436Z,43.67
2023-03-02T22:22:19.120Z,46.07
2023-03-02T22:27:24.555Z,41.53
2023-03-02T22:32:27.398Z,51.17
2023-03-02T22:37:24.994Z,50.43
2023-03-02T22:42:18.081Z,54.70
2023-03-02T22:47:01.683Z,55.57
2023-03-02T22:51:51.467Z,52.73
2023-03-02T22:56:42.514Z,51.10
2023-03-02T23:01:42.710Z,59.00
2023-03-02T23:06:34.809Z,53.30
2023-03-02T23:11:22.529Z,55.47
2023-03-02T23:16:35.167Z,64.00
2023-03-02T23:21:40.851Z,58.50
2023-03-02T23:26:34.632Z,64.23
2023-03-02T23:31:21.786Z,61.83
2023-03-02T23:36:05.767Z,65.77
2023-03-02T23:40:59.771Z,83.90
2023-03-02T23:45:43.393Z,150.37
2023-03-02T23:50:33.236Z,112.50
2023-03-02T23:55:19.967Z,82.03
